Flight Track Log - Related Links

Times and Time Zones

All times are in EDT time to prevent confusion due to time zone crossing. See the TCF3494 flight status page for this flight to view local times or setup timezone preferences in your user account.

Time Position Orientation Groundspeed Altitude Reporting Facility
EDT Latitude Longitude Course Direction KTS MPH feet Rate Location/Type
Mon 10:29:46 AM 39.8500 -104.7667 277° West 166 191 7,000  Level Denver TRACON
Mon 10:30:46 AM 39.8667 -104.8167 293° West 230 265 8,200 1,655 Climbing Denver TRACON
Mon 10:32:11 AM 39.9022 -104.9325 292° West 267 307 11,000 2,311 Climbing Denver Center
Mon 10:33:14 AM 39.9169 -105.0761 278° West 323 372 13,900 2,496 Climbing Denver Center
Mon 10:34:16 AM 39.9294 -105.2061 277° West 339 390 16,200 2,129 Climbing Denver Center
Mon 10:35:00 AM 39.9596 -105.2950 277° West  Level Estimated
Mon 10:35:18 AM 39.9408 -105.3353 277° West 359 413 18,300  Level Denver Center
Mon 10:36:20 AM 39.9550 -105.4800 277° West 374 430 21,200 2,081 Climbing Denver Center
Mon 10:37:22 AM 39.9672 -105.6097 277° West 365 420 22,600 1,500 Climbing Denver Center
Mon 10:38:24 AM 39.9733 -105.7492 273° West 398 458 24,300 1,210 Climbing Denver Center
Mon 10:39:26 AM 39.9703 -105.8631 268° West 390 449 25,100 1,355 Climbing Denver Center
Mon 10:40:28 AM 39.9836 -106.0794 275° West 427 491 27,100 1,452 Climbing Denver Center
Mon 10:41:30 AM 39.9908 -106.2358 273° West 432 497 28,100 1,104 Climbing Denver Center
Mon 10:42:33 AM 39.9992 -106.3958 274° West 443 510 29,400 687 Climbing Denver Center
Mon 10:44:16 AM 40.0150 -106.6850 274° West 455 524 30,000 218 Climbing Salt Lake Center
Mon 10:45:18 AM 40.0231 -106.8397 274° West 451 519 30,000  Level Salt Lake Center
Mon 10:46:20 AM 40.0297 -107.0178 273° West 442 509 30,000  Level Salt Lake Center
Mon 10:47:21 AM 40.0369 -107.1689 274° West 439 505 30,000  Level Salt Lake Center
Mon 10:48:23 AM 40.0433 -107.3203 273° West 438 504 30,000  Level Salt Lake Center
Mon 10:49:25 AM 40.0503 -107.4919 273° West 428 493 30,000  Level Salt Lake Center
Mon 10:50:27 AM 40.0567 -107.6381 273° West 424 488 30,000  Level Salt Lake Center
Mon 10:51:29 AM 40.0631 -107.8081 273° West 422 486 30,000  Level Salt Lake Center
Mon 10:52:31 AM 40.0686 -107.9531 273° West 420 483 30,000  Level Salt Lake Center
Mon 10:53:33 AM 40.0769 -108.1228 274° West 420 483 30,000  Level Salt Lake Center
Mon 10:54:34 AM 40.0831 -108.2675 273° West 421 484 30,000  Level Salt Lake Center
Mon 10:55:36 AM 40.0903 -108.4306 273° West 409 471 30,000  Level Salt Lake Center
Mon 10:56:38 AM 40.0961 -108.5706 273° West 407 468 30,000  Level Salt Lake Center
Mon 10:57:40 AM 40.1025 -108.7322 273° West 403 464 30,000  Level Salt Lake Center
Mon 10:58:42 AM 40.1078 -108.8689 273° West 399 459 30,000  Level Salt Lake Center
Mon 10:59:17 AM 40.1108 -108.9367 273° West 397 457 30,000  Level Denver Center
Mon 11:00:20 AM 40.1158 -109.0931 272° West 391 450 30,000  Level Denver Center
Mon 11:01:22 AM 40.1217 -109.2547 273° West 399 459 30,000  Level Denver Center
Mon 11:02:24 AM 40.1258 -109.3922 272° West 398 458 30,000  Level Denver Center
Mon 11:03:26 AM 40.1311 -109.5525 273° West 397 457 30,000  Level Denver Center
Mon 11:04:28 AM 40.1356 -109.6883 272° West 394 453 30,000  Level Denver Center
Mon 11:05:30 AM 40.1400 -109.8525 272° West 404 465 30,000  Level Denver Center
Mon 11:06:32 AM 40.1450 -109.9914 273° West 402 463 30,000  Level Denver Center
Mon 11:07:34 AM 40.1486 -110.1533 272° West 399 459 30,000  Level Denver Center
Mon 11:09:02 AM 40.1467 -110.3581 269° West 393 452 30,000  Level Salt Lake Center
Mon 11:10:04 AM 40.1458 -110.5186 270° West 396 456 30,000 -435 Level Salt Lake Center
Mon 11:11:06 AM 40.1442 -110.6558 269° West 395 455 29,100 -1,597 Descending Salt Lake Center
Mon 11:12:08 AM 40.1422 -110.8164 269° West 395 455 26,700 -1,984 Descending Salt Lake Center
Mon 11:13:10 AM 40.1400 -110.9378 269° West 389 448 25,000 -1,968 Descending Salt Lake Center
Mon 11:14:13 AM 40.1386 -111.1017 269° West 377 434 22,600 -2,064 Descending Salt Lake Center
Mon 11:15:15 AM 40.1372 -111.2317 269° West 362 417 20,700 -1,839 Descending Salt Lake Center
Mon 11:16:17 AM 40.1333 -111.3606 268° West 355 409 18,800 -1,839 Descending Salt Lake Center
Mon 11:17:19 AM 40.1317 -111.4858 269° West 347 399 16,900 -1,826 Descending Salt Lake Center
Mon 11:17:49 AM 40.1339 -111.5661 272° West 334 384 16,000 -900 Descending Salt Lake Center
Mon 11:18:19 AM 40.1511 -111.6192 293° West 326 375 16,000  Level Salt Lake Center
Mon 11:18:21 AM 40.1511 -111.6028 90° East 330 380 16,000 -98 Level Salt Lake Center
Mon 11:19:20 AM 40.1969 -111.7186 297° West 327 376 15,900  Descending Salt Lake Center
Mon 11:19:23 AM 40.1961 -111.7050 95° East 323 372 16,000 -1,477 Climbing Salt Lake Center
Mon 11:20:25 AM 40.2600 -111.7914 314° West 329 379 14,300 -1,969 Descending Salt Lake Center
Mon 11:20:27 AM 40.2719 -111.8139 305° West 328 377 13,900 -2,105 Descending Salt Lake Center
Mon 11:21:22 AM 40.3353 -111.8825 320° Northwest 317 365 12,300 -1,700 Descending Salt Lake Center
Mon 11:21:27 AM 40.3408 -111.8814 North 318 366 12,200 -1,600 Descending Salt Lake Center
Mon 11:22:22 AM 40.4058 -111.9344 328° Northwest 285 328 10,700 -1,452 Descending Salt Lake Center
Mon 11:22:29 AM 40.4108 -111.9311 27° Northeast 278 320 10,700 -689 Level Salt Lake Center
Mon 11:23:23 AM 40.4786 -111.9436 352° North 266 306 10,000 -774 Descending Salt Lake Center
Mon 11:23:31 AM 40.4853 -111.9394 25° Northeast 267 307 9,900 -1,377 Descending Salt Lake Center
Mon 11:24:24 AM 40.5492 -111.9508 352° North 236 272 8,600 -1,355 Descending Salt Lake Center
Mon 11:24:33 AM 40.5536 -111.9475 30° Northeast 242 278 8,500 -1,164 Descending Salt Lake Center
Mon 11:25:31 AM 40.6128 -111.9575 353° North 203 234 7,300 -1,065 Descending Salt Lake Center
Mon 11:25:35 AM 40.6108 -111.9547 133° Southeast 206 237 7,400 -818 Climbing Salt Lake Center
Mon 11:26:37 AM 40.6622 -111.9603 355° North 187 215 6,400 -1,027 Descending Salt Lake Center
Mon 11:27:26 AM 40.7075 -111.9678 353° North 173 199 5,500 -1,065 Descending Salt Lake Center
Mon 11:27:39 AM 40.7175 -111.9664 North 168 193 5,300 -787 Descending Salt Lake Center
Mon 11:28:27 AM 40.7469 -111.9714 353° North 143 165 4,700 -677 Descending Salt Lake Center
Mon 11:28:41 AM 40.7556 -111.9708 North 141 162 4,600 -395 Descending Salt Lake Center
Mon 11:29:43 AM 40.7931 -111.9747 356° North 136 157 4,200 -387 Descending Salt Lake Center

Login

Don't have an account? Register now (free) for customized features, flight alerts, and more!